sensor_id;sensor_type;location;lat;lon;timestamp;pressure;altitude;pressure_sealevel;temperature;humidity
10176;BME280;18221;38.704;0.152;2023-04-07T00:01:59;99158.28;;;17.94;44.83
10176;BME280;18221;38.704;0.152;2023-04-07T00:04:28;99159.31;;;17.93;44.85
10176;BME280;18221;38.704;0.152;2023-04-07T00:06:56;99153.75;;;17.95;44.92
10176;BME280;18221;38.704;0.152;2023-04-07T00:09:27;99150.88;;;17.96;44.56
10176;BME280;18221;38.704;0.152;2023-04-07T00:11:55;99149.84;;;17.97;44.95
10176;BME280;18221;38.704;0.152;2023-04-07T00:14:23;99154.84;;;18.00;45.00
10176;BME280;18221;38.704;0.152;2023-04-07T00:16:51;99151.25;;;17.93;45.21
10176;BME280;18221;38.704;0.152;2023-04-07T00:19:20;99146.41;;;17.88;45.30
10176;BME280;18221;38.704;0.152;2023-04-07T00:21:49;99150.13;;;17.87;45.44
10176;BME280;18221;38.704;0.152;2023-04-07T00:24:16;99148.38;;;17.95;45.40
10176;BME280;18221;38.704;0.152;2023-04-07T00:26:45;99144.03;;;17.94;45.50
10176;BME280;18221;38.704;0.152;2023-04-07T00:29:13;99154.56;;;17.95;45.38
10176;BME280;18221;38.704;0.152;2023-04-07T00:31:41;99148.56;;;17.93;45.57
10176;BME280;18221;38.704;0.152;2023-04-07T00:34:09;99148.56;;;17.93;45.52
10176;BME280;18221;38.704;0.152;2023-04-07T00:36:39;99143.19;;;17.93;45.41
10176;BME280;18221;38.704;0.152;2023-04-07T00:39:07;99149.56;;;17.92;45.46
10176;BME280;18221;38.704;0.152;2023-04-07T00:41:35;99148.72;;;17.92;45.38
10176;BME280;18221;38.704;0.152;2023-04-07T00:44:03;99146.22;;;17.90;45.31
10176;BME280;18221;38.704;0.152;2023-04-07T00:46:31;99148.28;;;17.88;45.38
10176;BME280;18221;38.704;0.152;2023-04-07T00:49:00;99146.78;;;17.85;45.30
10176;BME280;18221;38.704;0.152;2023-04-07T00:51:28;99143.97;;;17.79;45.39
10176;BME280;18221;38.704;0.152;2023-04-07T00:53:59;99141.66;;;17.76;45.40
10176;BME280;18221;38.704;0.152;2023-04-07T00:56:28;99137.31;;;17.75;45.44
10176;BME280;18221;38.704;0.152;2023-04-07T00:58:56;99133.50;;;17.69;45.48
10176;BME280;18221;38.704;0.152;2023-04-07T01:01:31;99138.59;;;17.64;45.34
10176;BME280;18221;38.704;0.152;2023-04-07T01:04:08;99127.19;;;17.62;45.60
10176;BME280;18221;38.704;0.152;2023-04-07T01:06:47;99124.50;;;17.62;45.73
10176;BME280;18221;38.704;0.152;2023-04-07T01:09:24;99129.41;;;17.59;45.61
10176;BME280;18221;38.704;0.152;2023-04-07T01:12:06;99122.63;;;17.63;45.64
10176;BME280;18221;38.704;0.152;2023-04-07T01:14:46;99118.75;;;17.65;45.59
10176;BME280;18221;38.704;0.152;2023-04-07T01:17:20;99126.72;;;17.59;45.75
10176;BME280;18221;38.704;0.152;2023-04-07T01:19:58;99124.75;;;17.53;45.84
10176;BME280;18221;38.704;0.152;2023-04-07T01:22:33;99117.28;;;17.40;46.13
10176;BME280;18221;38.704;0.152;2023-04-07T01:25:27;99109.03;;;17.42;46.15
10176;BME280;18221;38.704;0.152;2023-04-07T01:28:19;99111.13;;;17.32;46.25
10176;BME280;18221;38.704;0.152;2023-04-07T01:30:59;99102.50;;;17.21;46.63
10176;BME280;18221;38.704;0.152;2023-04-07T01:33:31;99108.56;;;17.15;46.71
10176;BME280;18221;38.704;0.152;2023-04-07T01:36:01;99099.72;;;17.15;46.61
10176;BME280;18221;38.704;0.152;2023-04-07T01:38:30;99106.56;;;17.17;46.73
10176;BME280;18221;38.704;0.152;2023-04-07T01:41:01;99105.22;;;17.13;46.81
10176;BME280;18221;38.704;0.152;2023-04-07T01:43:31;99106.63;;;17.09;47.18
10176;BME280;18221;38.704;0.152;2023-04-07T01:46:03;99094.69;;;17.12;47.11
10176;BME280;18221;38.704;0.152;2023-04-07T01:48:32;99094.84;;;17.10;47.12
10176;BME280;18221;38.704;0.152;2023-04-07T01:51:02;99096.88;;;17.08;47.34
10176;BME280;18221;38.704;0.152;2023-04-07T01:53:32;99093.59;;;16.98;47.31
10176;BME280;18221;38.704;0.152;2023-04-07T01:56:04;99095.00;;;16.94;47.52
10176;BME280;18221;38.704;0.152;2023-04-07T01:58:32;99095.00;;;16.94;47.45
10176;BME280;18221;38.704;0.152;2023-04-07T02:01:02;99091.28;;;16.95;47.58
10176;BME280;18221;38.704;0.152;2023-04-07T02:03:38;99086.56;;;16.97;47.39
10176;BME280;18221;38.704;0.152;2023-04-07T02:06:10;99091.63;;;16.92;47.71
10176;BME280;18221;38.704;0.152;2023-04-07T02:08:45;99088.28;;;16.90;47.46
10176;BME280;18221;38.704;0.152;2023-04-07T02:11:19;99074.09;;;16.82;47.93
10176;BME280;18221;38.704;0.152;2023-04-07T02:13:49;99082.94;;;16.90;47.81
10176;BME280;18221;38.704;0.152;2023-04-07T02:16:22;99085.44;;;16.92;47.65
10176;BME280;18221;38.704;0.152;2023-04-07T02:18:51;99081.28;;;16.89;47.87
10176;BME280;18221;38.704;0.152;2023-04-07T02:21:21;99075.59;;;16.84;47.98
10176;BME280;18221;38.704;0.152;2023-04-07T02:23:50;99070.75;;;16.80;48.04
10176;BME280;18221;38.704;0.152;2023-04-07T02:26:18;99076.13;;;16.80;47.87
10176;BME280;18221;38.704;0.152;2023-04-07T02:28:47;99072.78;;;16.78;47.95
10176;BME280;18221;38.704;0.152;2023-04-07T02:31:14;99064.75;;;16.78;47.93
10176;BME280;18221;38.704;0.152;2023-04-07T02:33:44;99070.59;;;16.81;47.77
10176;BME280;18221;38.704;0.152;2023-04-07T02:36:12;99072.59;;;16.79;47.68
10176;BME280;18221;38.704;0.152;2023-04-07T02:38:40;99071.94;;;16.77;47.83
10176;BME280;18221;38.704;0.152;2023-04-07T02:41:08;99066.59;;;16.77;47.94
10176;BME280;18221;38.704;0.152;2023-04-07T02:43:37;99064.75;;;16.78;47.86
10176;BME280;18221;38.704;0.152;2023-04-07T02:46:05;99071.31;;;16.75;48.03
10176;BME280;18221;38.704;0.152;2023-04-07T02:48:33;99062.59;;;16.73;47.95
10176;BME280;18221;38.704;0.152;2023-04-07T02:51:02;99061.97;;;16.71;48.20
10176;BME280;18221;38.704;0.152;2023-04-07T02:53:30;99066.13;;;16.74;48.04
10176;BME280;18221;38.704;0.152;2023-04-07T02:55:59;99063.25;;;16.75;48.14
10176;BME280;18221;38.704;0.152;2023-04-07T02:58:27;99069.84;;;16.64;48.26
10176;BME280;18221;38.704;0.152;2023-04-07T03:00:55;99072.69;;;16.71;48.42
10176;BME280;18221;38.704;0.152;2023-04-07T03:03:23;99068.81;;;16.74;47.82
10176;BME280;18221;38.704;0.152;2023-04-07T03:05:51;99074.97;;;16.74;48.17
10176;BME280;18221;38.704;0.152;2023-04-07T03:08:21;99067.66;;;16.68;47.80
10176;BME280;18221;38.704;0.152;2023-04-07T03:10:49;99066.34;;;16.64;48.19
10176;BME280;18221;38.704;0.152;2023-04-07T03:13:19;99072.03;;;16.61;48.15
10176;BME280;18221;38.704;0.152;2023-04-07T03:15:47;99064.19;;;16.59;48.22
10176;BME280;18221;38.704;0.152;2023-04-07T03:18:15;99067.06;;;16.58;48.04
10176;BME280;18221;38.704;0.152;2023-04-07T03:20:43;99051.13;;;16.56;47.97
10176;BME280;18221;38.704;0.152;2023-04-07T03:23:13;99055.66;;;16.56;48.12
10176;BME280;18221;38.704;0.152;2023-04-07T03:25:42;99053.16;;;16.54;48.32
10176;BME280;18221;38.704;0.152;2023-04-07T03:28:11;99057.00;;;16.52;48.72
10176;BME280;18221;38.704;0.152;2023-04-07T03:30:39;99056.00;;;16.53;48.54
10176;BME280;18221;38.704;0.152;2023-04-07T03:33:07;99057.16;;;16.50;48.65
10176;BME280;18221;38.704;0.152;2023-04-07T03:35:35;99054.16;;;16.53;48.81
10176;BME280;18221;38.704;0.152;2023-04-07T03:38:03;99053.31;;;16.53;48.85
10176;BME280;18221;38.704;0.152;2023-04-07T03:40:31;99055.00;;;16.54;48.82
10176;BME280;18221;38.704;0.152;2023-04-07T03:43:02;99056.00;;;16.53;48.85
10176;BME280;18221;38.704;0.152;2023-04-07T03:45:33;99041.25;;;16.49;48.79
10176;BME280;18221;38.704;0.152;2023-04-07T03:48:01;99049.97;;;16.51;48.71
10176;BME280;18221;38.704;0.152;2023-04-07T03:50:29;99046.63;;;16.49;48.66
10176;BME280;18221;38.704;0.152;2023-04-07T03:52:57;99040.78;;;16.45;48.71
10176;BME280;18221;38.704;0.152;2023-04-07T03:55:25;99038.28;;;16.44;49.00
10176;BME280;18221;38.704;0.152;2023-04-07T03:57:53;99037.63;;;16.42;48.89
10176;BME280;18221;38.704;0.152;2023-04-07T04:00:23;99043.34;;;16.39;49.14
10176;BME280;18221;38.704;0.152;2023-04-07T04:02:55;99046.19;;;16.37;48.96
10176;BME280;18221;38.704;0.152;2023-04-07T04:05:23;99045.53;;;16.35;49.01
10176;BME280;18221;38.704;0.152;2023-04-07T04:07:51;99044.88;;;16.33;49.16
10176;BME280;18221;38.704;0.152;2023-04-07T04:10:19;99043.03;;;16.34;48.93
10176;BME280;18221;38.704;0.152;2023-04-07T04:12:48;99042.00;;;16.35;48.89
10176;BME280;18221;38.704;0.152;2023-04-07T04:15:16;99036.34;;;16.30;49.04
10176;BME280;18221;38.704;0.152;2023-04-07T04:17:46;99037.03;;;16.32;48.66
10176;BME280;18221;38.704;0.152;2023-04-07T04:20:14;99034.03;;;16.27;48.81
10176;BME280;18221;38.704;0.152;2023-04-07T04:22:42;99038.69;;;16.25;48.91
10176;BME280;18221;38.704;0.152;2023-04-07T04:25:10;99034.19;;;16.25;49.24
10176;BME280;18221;38.704;0.152;2023-04-07T04:27:39;99034.19;;;16.25;49.11
10176;BME280;18221;38.704;0.152;2023-04-07T04:30:08;99036.22;;;16.23;49.03
10176;BME280;18221;38.704;0.152;2023-04-07T04:32:36;99041.22;;;16.26;49.18
10176;BME280;18221;38.704;0.152;2023-04-07T04:35:07;99037.53;;;16.27;49.31
10176;BME280;18221;38.704;0.152;2023-04-07T04:37:36;99034.38;;;16.24;49.18
10176;BME280;18221;38.704;0.152;2023-04-07T04:40:05;99047.94;;;16.22;49.31
10176;BME280;18221;38.704;0.152;2023-04-07T04:42:35;99049.47;;;16.17;49.10
10176;BME280;18221;38.704;0.152;2023-04-07T04:45:04;99044.81;;;16.11;48.98
10176;BME280;18221;38.704;0.152;2023-04-07T04:47:33;99049.66;;;16.15;49.11
10176;BME280;18221;38.704;0.152;2023-04-07T04:50:07;99055.69;;;16.09;49.47
10176;BME280;18221;38.704;0.152;2023-04-07T04:52:35;99057.22;;;16.03;49.40
10176;BME280;18221;38.704;0.152;2023-04-07T04:55:06;99049.34;;;16.02;49.48
10176;BME280;18221;38.704;0.152;2023-04-07T04:57:35;99053.63;;;16.19;49.24
10176;BME280;18221;38.704;0.152;2023-04-07T05:00:05;99055.50;;;16.19;49.08
10176;BME280;18221;38.704;0.152;2023-04-07T05:02:35;99055.38;;;16.04;49.10
10176;BME280;18221;38.704;0.152;2023-04-07T05:05:06;99054.53;;;16.03;49.54
10176;BME280;18221;38.704;0.152;2023-04-07T05:07:35;99065.44;;;16.02;49.62
10176;BME280;18221;38.704;0.152;2023-04-07T05:10:05;99067.44;;;16.00;49.61
10176;BME280;18221;38.704;0.152;2023-04-07T05:12:34;99066.28;;;16.02;49.47
10176;BME280;18221;38.704;0.152;2023-04-07T05:15:02;99062.09;;;16.00;49.65
10176;BME280;18221;38.704;0.152;2023-04-07T05:17:31;99070.47;;;15.97;49.80
10176;BME280;18221;38.704;0.152;2023-04-07T05:19:59;99060.41;;;15.99;49.72
10176;BME280;18221;38.704;0.152;2023-04-07T05:22:29;99062.44;;;15.97;49.58
10176;BME280;18221;38.704;0.152;2023-04-07T05:24:57;99072.31;;;15.96;49.81
10176;BME280;18221;38.704;0.152;2023-04-07T05:27:25;99072.66;;;15.93;49.45
10176;BME280;18221;38.704;0.152;2023-04-07T05:29:53;99064.94;;;15.98;49.59
10176;BME280;18221;38.704;0.152;2023-04-07T05:32:21;99061.44;;;15.98;49.66
10176;BME280;18221;38.704;0.152;2023-04-07T05:34:49;99062.94;;;16.00;49.83
10176;BME280;18221;38.704;0.152;2023-04-07T05:37:17;99058.75;;;15.98;49.65
10176;BME280;18221;38.704;0.152;2023-04-07T05:39:47;99057.59;;;16.00;49.89
10176;BME280;18221;38.704;0.152;2023-04-07T05:42:15;99065.25;;;16.03;49.73
10176;BME280;18221;38.704;0.152;2023-04-07T05:44:44;99065.94;;;16.05;50.06
10176;BME280;18221;38.704;0.152;2023-04-07T05:47:12;99067.94;;;16.03;50.17
10176;BME280;18221;38.704;0.152;2023-04-07T05:49:40;99070.78;;;16.02;50.54
10176;BME280;18221;38.704;0.152;2023-04-07T05:52:12;99068.75;;;16.04;50.25
10176;BME280;18221;38.704;0.152;2023-04-07T05:54:40;99068.59;;;16.05;50.55
10176;BME280;18221;38.704;0.152;2023-04-07T05:57:10;99076.28;;;16.08;50.59
10176;BME280;18221;38.704;0.152;2023-04-07T05:59:38;99079.13;;;16.15;50.46
10176;BME280;18221;38.704;0.152;2023-04-07T06:02:07;99081.25;;;16.20;50.42
10176;BME280;18221;38.704;0.152;2023-04-07T06:04:35;99081.09;;;16.21;50.30
10176;BME280;18221;38.704;0.152;2023-04-07T06:07:05;99083.41;;;16.24;50.55
10176;BME280;18221;38.704;0.152;2023-04-07T06:09:33;99094.13;;;16.24;50.40
10176;BME280;18221;38.704;0.152;2023-04-07T06:12:01;99098.50;;;16.25;50.31
10176;BME280;18221;38.704;0.152;2023-04-07T06:14:32;99092.25;;;16.33;50.46
10176;BME280;18221;38.704;0.152;2023-04-07T06:17:00;99089.44;;;16.34;50.16
10176;BME280;18221;38.704;0.152;2023-04-07T06:19:28;99093.75;;;16.35;50.35
10176;BME280;18221;38.704;0.152;2023-04-07T06:21:56;99102.81;;;16.34;50.17
10176;BME280;18221;38.704;0.152;2023-04-07T06:24:24;99101.34;;;16.32;50.16
10176;BME280;18221;38.704;0.152;2023-04-07T06:26:53;99104.47;;;16.35;50.06
10176;BME280;18221;38.704;0.152;2023-04-07T06:29:22;99108.66;;;16.38;50.21
10176;BME280;18221;38.704;0.152;2023-04-07T06:31:53;99105.28;;;16.44;50.33
10176;BME280;18221;38.704;0.152;2023-04-07T06:34:22;99104.94;;;16.47;50.09
10176;BME280;18221;38.704;0.152;2023-04-07T06:36:50;99108.16;;;16.42;50.50
10176;BME280;18221;38.704;0.152;2023-04-07T06:39:19;99114.50;;;16.41;50.32
10176;BME280;18221;38.704;0.152;2023-04-07T06:41:47;99118.50;;;16.45;50.62
10176;BME280;18221;38.704;0.152;2023-04-07T06:44:16;99112.97;;;16.47;50.56
10176;BME280;18221;38.704;0.152;2023-04-07T06:46:44;99112.44;;;16.51;50.82
10176;BME280;18221;38.704;0.152;2023-04-07T06:49:17;99119.34;;;16.54;51.08
10176;BME280;18221;38.704;0.152;2023-04-07T06:51:46;99115.97;;;16.60;50.79
10176;BME280;18221;38.704;0.152;2023-04-07T06:54:14;99117.28;;;16.64;50.71
10176;BME280;18221;38.704;0.152;2023-04-07T06:56:42;99120.22;;;16.77;50.97
10176;BME280;18221;38.704;0.152;2023-04-07T06:59:11;99119.44;;;16.99;50.60
10176;BME280;18221;38.704;0.152;2023-04-07T07:01:39;99129.72;;;17.10;50.26
10176;BME280;18221;38.704;0.152;2023-04-07T07:04:09;99122.53;;;17.34;49.93
10176;BME280;18221;38.704;0.152;2023-04-07T07:06:39;99127.78;;;17.72;49.52
10176;BME280;18221;38.704;0.152;2023-04-07T07:09:08;99132.06;;;18.11;49.06
10176;BME280;18221;38.704;0.152;2023-04-07T07:11:37;99133.88;;;18.47;48.30
10176;BME280;18221;38.704;0.152;2023-04-07T07:14:06;99136.78;;;18.82;47.00
10176;BME280;18221;38.704;0.152;2023-04-07T07:16:35;99143.41;;;19.57;45.95
10176;BME280;18221;38.704;0.152;2023-04-07T07:19:03;99129.41;;;20.24;44.54
10176;BME280;18221;38.704;0.152;2023-04-07T07:21:32;99130.28;;;20.72;42.57
10176;BME280;18221;38.704;0.152;2023-04-07T07:24:02;99129.06;;;21.54;41.01
10176;BME280;18221;38.704;0.152;2023-04-07T07:26:31;99131.81;;;21.87;38.94
10176;BME280;18221;38.704;0.152;2023-04-07T07:29:00;99140.03;;;22.45;37.47
10176;BME280;18221;38.704;0.152;2023-04-07T07:31:31;99135.72;;;22.18;36.98
10176;BME280;18221;38.704;0.152;2023-04-07T07:34:02;99131.50;;;22.35;36.42
10176;BME280;18221;38.704;0.152;2023-04-07T07:36:30;99134.59;;;22.45;36.38
10176;BME280;18221;38.704;0.152;2023-04-07T07:39:01;99133.94;;;22.76;35.91
10176;BME280;18221;38.704;0.152;2023-04-07T07:41:29;99139.13;;;22.77;35.73
10176;BME280;18221;38.704;0.152;2023-04-07T07:43:58;99136.88;;;22.67;35.71
10176;BME280;18221;38.704;0.152;2023-04-07T07:46:26;99138.63;;;22.23;36.29
10176;BME280;18221;38.704;0.152;2023-04-07T07:48:55;99134.47;;;21.81;36.97
10176;BME280;18221;38.704;0.152;2023-04-07T07:51:24;99136.56;;;21.52;37.64
10176;BME280;18221;38.704;0.152;2023-04-07T07:53:53;99134.84;;;21.25;38.11
10176;BME280;18221;38.704;0.152;2023-04-07T07:56:23;99131.06;;;21.20;38.58
10176;BME280;18221;38.704;0.152;2023-04-07T07:58:52;99126.81;;;20.84;39.09
10176;BME280;18221;38.704;0.152;2023-04-07T08:01:20;99136.94;;;20.69;39.54
10176;BME280;18221;38.704;0.152;2023-04-07T08:03:49;99130.03;;;20.60;39.92
10176;BME280;18221;38.704;0.152;2023-04-07T08:06:17;99132.75;;;20.67;39.42
10176;BME280;18221;38.704;0.152;2023-04-07T08:08:46;99137.09;;;20.68;39.43
10176;BME280;18221;38.704;0.152;2023-04-07T08:11:15;99151.06;;;20.37;40.16
10176;BME280;18221;38.704;0.152;2023-04-07T08:13:45;99142.94;;;20.03;41.28
10176;BME280;18221;38.704;0.152;2023-04-07T08:16:13;99152.97;;;20.15;41.09
10176;BME280;18221;38.704;0.152;2023-04-07T08:18:42;99142.34;;;20.35;40.63
10176;BME280;18221;38.704;0.152;2023-04-07T08:21:10;99149.97;;;20.25;40.60
10176;BME280;18221;38.704;0.152;2023-04-07T08:23:38;99143.34;;;20.27;40.53
10176;BME280;18221;38.704;0.152;2023-04-07T08:26:06;99145.78;;;20.22;40.43
10176;BME280;18221;38.704;0.152;2023-04-07T08:28:35;99147.94;;;20.33;40.48
10176;BME280;18221;38.704;0.152;2023-04-07T08:31:04;99150.09;;;20.17;40.79
10176;BME280;18221;38.704;0.152;2023-04-07T08:33:33;99139.88;;;20.40;40.24
10176;BME280;18221;38.704;0.152;2023-04-07T08:36:01;99138.41;;;20.38;40.19
10176;BME280;18221;38.704;0.152;2023-04-07T08:38:30;99144.41;;;20.33;40.09
10176;BME280;18221;38.704;0.152;2023-04-07T08:41:03;99140.91;;;20.39;40.09
10176;BME280;18221;38.704;0.152;2023-04-07T08:43:37;99142.91;;;20.24;40.22
10176;BME280;18221;38.704;0.152;2023-04-07T08:46:09;99144.38;;;20.26;40.12
10176;BME280;18221;38.704;0.152;2023-04-07T08:48:40;99145.47;;;20.11;40.33
10176;BME280;18221;38.704;0.152;2023-04-07T08:51:13;99149.16;;;20.03;41.24
10176;BME280;18221;38.704;0.152;2023-04-07T08:53:49;99153.16;;;20.07;41.38
10176;BME280;18221;38.704;0.152;2023-04-07T08:56:19;99153.69;;;19.96;41.78
10176;BME280;18221;38.704;0.152;2023-04-07T08:58:48;99156.66;;;20.08;41.35
10176;BME280;18221;38.704;0.152;2023-04-07T09:01:20;99158.78;;;20.12;40.88
10176;BME280;18221;38.704;0.152;2023-04-07T09:03:50;99150.88;;;19.83;40.99
10176;BME280;18221;38.704;0.152;2023-04-07T09:06:19;99155.28;;;19.91;40.75
10176;BME280;18221;38.704;0.152;2023-04-07T09:08:47;99152.06;;;20.02;40.80
10176;BME280;18221;38.704;0.152;2023-04-07T09:11:16;99149.66;;;19.86;41.28
10176;BME280;18221;38.704;0.152;2023-04-07T09:13:44;99147.94;;;20.06;40.83
10176;BME280;18221;38.704;0.152;2023-04-07T09:16:13;99152.78;;;20.17;40.16
10176;BME280;18221;38.704;0.152;2023-04-07T09:18:44;99161.47;;;20.12;40.45
10176;BME280;18221;38.704;0.152;2023-04-07T09:21:13;99156.13;;;20.19;40.49
10176;BME280;18221;38.704;0.152;2023-04-07T09:23:42;99160.88;;;20.17;40.43
10176;BME280;18221;38.704;0.152;2023-04-07T09:26:23;99162.25;;;20.34;39.69
10176;BME280;18221;38.704;0.152;2023-04-07T09:28:54;99167.84;;;20.33;39.77
10176;BME280;18221;38.704;0.152;2023-04-07T09:31:43;99173.31;;;20.18;39.34
10176;BME280;18221;38.704;0.152;2023-04-07T09:34:24;99167.16;;;20.24;38.31
10176;BME280;18221;38.704;0.152;2023-04-07T09:36:53;99162.47;;;20.33;37.85
10176;BME280;18221;38.704;0.152;2023-04-07T09:39:22;99163.78;;;20.43;38.87
10176;BME280;18221;38.704;0.152;2023-04-07T09:41:52;99167.63;;;20.27;40.38
10176;BME280;18221;38.704;0.152;2023-04-07T09:44:21;99168.00;;;20.24;39.48
10176;BME280;18221;38.704;0.152;2023-04-07T09:46:52;99165.00;;;20.41;39.45
10176;BME280;18221;38.704;0.152;2023-04-07T09:49:23;99154.22;;;20.47;39.37
10176;BME280;18221;38.704;0.152;2023-04-07T09:51:57;99154.06;;;20.49;39.38
10176;BME280;18221;38.704;0.152;2023-04-07T09:54:35;99157.38;;;20.51;40.11
10176;BME280;18221;38.704;0.152;2023-04-07T09:57:06;99160.09;;;20.57;39.89
10176;BME280;18221;38.704;0.152;2023-04-07T09:59:37;99154.69;;;20.51;39.43
10176;BME280;18221;38.704;0.152;2023-04-07T10:02:08;99151.16;;;20.50;38.88
10176;BME280;18221;38.704;0.152;2023-04-07T10:04:38;99157.63;;;20.62;38.54
10176;BME280;18221;38.704;0.152;2023-04-07T10:07:08;99147.09;;;20.67;39.22
10176;BME280;18221;38.704;0.152;2023-04-07T10:09:36;99142.88;;;20.58;38.83
10176;BME280;18221;38.704;0.152;2023-04-07T10:12:06;99144.19;;;20.69;38.02
10176;BME280;18221;38.704;0.152;2023-04-07T10:14:35;99145.41;;;20.66;36.17
10176;BME280;18221;38.704;0.152;2023-04-07T10:17:04;99147.09;;;20.74;37.70
10176;BME280;18221;38.704;0.152;2023-04-07T10:19:33;99139.84;;;20.74;37.46
10176;BME280;18221;38.704;0.152;2023-04-07T10:22:06;99140.06;;;20.79;38.28
10176;BME280;18221;38.704;0.152;2023-04-07T10:24:50;99140.81;;;20.60;39.63
10176;BME280;18221;38.704;0.152;2023-04-07T10:27:30;99137.53;;;20.65;39.16
10176;BME280;18221;38.704;0.152;2023-04-07T10:30:02;99134.28;;;20.82;39.04
10176;BME280;18221;38.704;0.152;2023-04-07T10:32:45;99128.50;;;20.92;38.31
10176;BME280;18221;38.704;0.152;2023-04-07T10:35:14;99133.88;;;20.85;38.76
10176;BME280;18221;38.704;0.152;2023-04-07T10:38:11;99132.03;;;20.92;38.11
10176;BME280;18221;38.704;0.152;2023-04-07T10:40:42;99135.53;;;20.86;40.13
10176;BME280;18221;38.704;0.152;2023-04-07T10:43:11;99130.41;;;21.05;38.94
10176;BME280;18221;38.704;0.152;2023-04-07T10:45:57;99126.84;;;21.04;39.05
10176;BME280;18221;38.704;0.152;2023-04-07T10:48:28;99119.16;;;20.94;40.03
10176;BME280;18221;38.704;0.152;2023-04-07T10:51:16;99119.88;;;21.16;39.38
10176;BME280;18221;38.704;0.152;2023-04-07T10:54:20;99120.75;;;21.30;39.66
10176;BME280;18221;38.704;0.152;2023-04-07T10:57:09;99119.06;;;21.29;39.91
10176;BME280;18221;38.704;0.152;2023-04-07T11:00:16;99116.97;;;21.18;39.29
10176;BME280;18221;38.704;0.152;2023-04-07T11:02:44;99112.97;;;21.07;38.47
10176;BME280;18221;38.704;0.152;2023-04-07T11:05:22;99117.78;;;21.18;39.54
10176;BME280;18221;38.704;0.152;2023-04-07T11:07:53;99114.44;;;21.10;40.27
10176;BME280;18221;38.704;0.152;2023-04-07T11:10:29;99114.28;;;21.24;39.85
10176;BME280;18221;38.704;0.152;2023-04-07T11:13:04;99114.50;;;21.36;39.13
10176;BME280;18221;38.704;0.152;2023-04-07T11:15:34;99114.91;;;21.46;38.94
10176;BME280;18221;38.704;0.152;2023-04-07T11:18:15;99111.97;;;21.28;39.02
10176;BME280;18221;38.704;0.152;2023-04-07T11:20:53;99105.78;;;21.34;38.34
10176;BME280;18221;38.704;0.152;2023-04-07T11:23:22;99100.38;;;21.47;38.39
10176;BME280;18221;38.704;0.152;2023-04-07T11:26:00;99099.78;;;21.58;37.07
10176;BME280;18221;38.704;0.152;2023-04-07T11:28:29;99097.88;;;21.52;37.46
10176;BME280;18221;38.704;0.152;2023-04-07T11:30:58;99094.16;;;21.60;36.29
10176;BME280;18221;38.704;0.152;2023-04-07T11:33:30;99084.78;;;21.49;36.75
10176;BME280;18221;38.704;0.152;2023-04-07T11:36:02;99080.22;;;21.63;36.53
10176;BME280;18221;38.704;0.152;2023-04-07T11:38:36;99082.50;;;21.59;37.49
10176;BME280;18221;38.704;0.152;2023-04-07T11:41:14;99071.69;;;21.72;35.91
10176;BME280;18221;38.704;0.152;2023-04-07T11:43:43;99076.06;;;21.93;35.68
10176;BME280;18221;38.704;0.152;2023-04-07T11:46:13;99075.25;;;21.86;35.13
10176;BME280;18221;38.704;0.152;2023-04-07T11:48:44;99070.03;;;21.71;36.24
10176;BME280;18221;38.704;0.152;2023-04-07T11:51:16;99077.50;;;21.82;35.90
10176;BME280;18221;38.704;0.152;2023-04-07T11:53:46;99066.72;;;21.89;34.67
10176;BME280;18221;38.704;0.152;2023-04-07T11:56:16;99070.44;;;21.94;35.47
10176;BME280;18221;38.704;0.152;2023-04-07T11:58:48;99062.50;;;22.12;36.50
10176;BME280;18221;38.704;0.152;2023-04-07T12:01:17;99060.22;;;22.09;35.39
10176;BME280;18221;38.704;0.152;2023-04-07T12:03:56;99055.59;;;22.23;34.33
10176;BME280;18221;38.704;0.152;2023-04-07T12:06:29;99067.13;;;21.92;36.35
10176;BME280;18221;38.704;0.152;2023-04-07T12:09:01;99058.38;;;21.77;37.56
10176;BME280;18221;38.704;0.152;2023-04-07T12:11:31;99051.09;;;21.84;35.98
10176;BME280;18221;38.704;0.152;2023-04-07T12:14:00;99051.09;;;21.78;33.11
10176;BME280;18221;38.704;0.152;2023-04-07T12:16:30;99057.34;;;21.78;33.41
10176;BME280;18221;38.704;0.152;2023-04-07T12:18:59;99048.41;;;21.71;33.81
10176;BME280;18221;38.704;0.152;2023-04-07T12:21:28;99048.00;;;21.87;33.68
10176;BME280;18221;38.704;0.152;2023-04-07T12:23:57;99048.22;;;21.92;31.99
10176;BME280;18221;38.704;0.152;2023-04-07T12:26:25;99042.53;;;22.00;33.71
10176;BME280;18221;38.704;0.152;2023-04-07T12:28:55;99035.91;;;21.96;32.66
10176;BME280;18221;38.704;0.152;2023-04-07T12:31:24;99044.22;;;22.08;33.67
10176;BME280;18221;38.704;0.152;2023-04-07T12:33:53;99033.97;;;22.17;31.73
10176;BME280;18221;38.704;0.152;2023-04-07T12:36:22;99035.84;;;22.23;33.48
10176;BME280;18221;38.704;0.152;2023-04-07T12:38:50;99027.69;;;22.29;28.12
10176;BME280;18221;38.704;0.152;2023-04-07T12:41:19;99028.66;;;22.48;27.52
10176;BME280;18221;38.704;0.152;2023-04-07T12:43:47;99028.19;;;22.64;24.25
10176;BME280;18221;38.704;0.152;2023-04-07T12:46:18;99025.31;;;22.52;23.18
10176;BME280;18221;38.704;0.152;2023-04-07T12:48:47;99027.09;;;22.78;26.16
10176;BME280;18221;38.704;0.152;2023-04-07T12:51:15;99023.94;;;22.81;27.99
10176;BME280;18221;38.704;0.152;2023-04-07T12:53:44;99019.75;;;22.85;22.72
10176;BME280;18221;38.704;0.152;2023-04-07T12:56:13;99013.81;;;22.70;26.88
10176;BME280;18221;38.704;0.152;2023-04-07T12:58:42;99018.56;;;22.74;30.22
10176;BME280;18221;38.704;0.152;2023-04-07T13:01:10;99003.38;;;22.60;25.84
10176;BME280;18221;38.704;0.152;2023-04-07T13:03:40;99008.22;;;22.65;27.77
10176;BME280;18221;38.704;0.152;2023-04-07T13:06:08;99007.31;;;22.71;18.74
10176;BME280;18221;38.704;0.152;2023-04-07T13:08:37;99005.03;;;22.74;20.60
10176;BME280;18221;38.704;0.152;2023-04-07T13:11:06;98995.94;;;22.56;22.05
10176;BME280;18221;38.704;0.152;2023-04-07T13:13:34;99003.72;;;22.84;27.88
10176;BME280;18221;38.704;0.152;2023-04-07T13:16:02;98995.22;;;22.73;26.35
10176;BME280;18221;38.704;0.152;2023-04-07T13:18:31;98997.38;;;22.96;30.26